sensor_id;sensor_type;location;lat;lon;timestamp;temperature;humidity
17632;DHT22;8934;51.194;17.150;2022-09-20T00:01:05;9.60;99.90
17632;DHT22;8934;51.194;17.150;2022-09-20T00:03:56;9.60;99.90
17632;DHT22;8934;51.194;17.150;2022-09-20T00:06:44;9.70;99.90
17632;DHT22;8934;51.194;17.150;2022-09-20T00:09:31;9.70;99.90
17632;DHT22;8934;51.194;17.150;2022-09-20T00:12:19;9.80;99.90
17632;DHT22;8934;51.194;17.150;2022-09-20T00:15:09;9.70;99.90
17632;DHT22;8934;51.194;17.150;2022-09-20T00:17:57;9.70;99.90
17632;DHT22;8934;51.194;17.150;2022-09-20T00:20:46;9.80;99.90
17632;DHT22;8934;51.194;17.150;2022-09-20T00:23:34;9.70;99.90
17632;DHT22;8934;51.194;17.150;2022-09-20T00:26:22;9.70;99.90
17632;DHT22;8934;51.194;17.150;2022-09-20T00:29:10;9.70;99.90
17632;DHT22;8934;51.194;17.150;2022-09-20T00:32:00;9.70;99.90
17632;DHT22;8934;51.194;17.150;2022-09-20T00:34:48;9.70;99.90
17632;DHT22;8934;51.194;17.150;2022-09-20T00:37:53;9.70;99.90
17632;DHT22;8934;51.194;17.150;2022-09-20T00:40:41;9.80;99.90
17632;DHT22;8934;51.194;17.150;2022-09-20T00:43:37;9.80;99.90
17632;DHT22;8934;51.194;17.150;2022-09-20T00:46:28;9.90;99.90
17632;DHT22;8934;51.194;17.150;2022-09-20T00:49:25;9.90;99.90
17632;DHT22;8934;51.194;17.150;2022-09-20T00:52:15;10.00;99.90
17632;DHT22;8934;51.194;17.150;2022-09-20T00:55:05;10.00;99.90
17632;DHT22;8934;51.194;17.150;2022-09-20T00:57:54;10.00;99.90
17632;DHT22;8934;51.194;17.150;2022-09-20T01:00:43;10.00;99.90
17632;DHT22;8934;51.194;17.150;2022-09-20T01:03:33;10.00;99.90
17632;DHT22;8934;51.194;17.150;2022-09-20T01:06:24;10.00;99.90
17632;DHT22;8934;51.194;17.150;2022-09-20T01:09:12;10.00;99.90
17632;DHT22;8934;51.194;17.150;2022-09-20T01:12:03;10.00;99.90
17632;DHT22;8934;51.194;17.150;2022-09-20T01:14:53;10.00;99.90
17632;DHT22;8934;51.194;17.150;2022-09-20T01:17:45;10.10;99.90
17632;DHT22;8934;51.194;17.150;2022-09-20T01:20:35;10.10;99.90
17632;DHT22;8934;51.194;17.150;2022-09-20T01:23:42;10.10;99.90
17632;DHT22;8934;51.194;17.150;2022-09-20T01:26:52;10.10;99.90
17632;DHT22;8934;51.194;17.150;2022-09-20T01:30:02;10.00;99.90
17632;DHT22;8934;51.194;17.150;2022-09-20T01:33:05;10.00;99.90
17632;DHT22;8934;51.194;17.150;2022-09-20T01:35:57;10.00;99.90
17632;DHT22;8934;51.194;17.150;2022-09-20T01:38:53;10.00;99.90
17632;DHT22;8934;51.194;17.150;2022-09-20T01:41:49;10.00;99.90
17632;DHT22;8934;51.194;17.150;2022-09-20T01:44:45;10.00;99.90
17632;DHT22;8934;51.194;17.150;2022-09-20T01:47:39;10.00;99.90
17632;DHT22;8934;51.194;17.150;2022-09-20T01:50:34;10.00;99.90
17632;DHT22;8934;51.194;17.150;2022-09-20T01:53:51;10.00;99.90
17632;DHT22;8934;51.194;17.150;2022-09-20T02:00:28;10.00;99.90
17632;DHT22;8934;51.194;17.150;2022-09-20T02:07:12;10.00;99.90
17632;DHT22;8934;51.194;17.150;2022-09-20T02:10:33;10.00;99.90
17632;DHT22;8934;51.194;17.150;2022-09-20T02:13:28;9.90;99.90
17632;DHT22;8934;51.194;17.150;2022-09-20T02:16:43;10.00;99.90
17632;DHT22;8934;51.194;17.150;2022-09-20T02:19:51;10.00;99.90
17632;DHT22;8934;51.194;17.150;2022-09-20T02:22:58;9.90;99.90
17632;DHT22;8934;51.194;17.150;2022-09-20T02:26:08;10.00;99.90
17632;DHT22;8934;51.194;17.150;2022-09-20T02:29:05;10.00;99.90
17632;DHT22;8934;51.194;17.150;2022-09-20T02:32:10;10.00;99.90
17632;DHT22;8934;51.194;17.150;2022-09-20T02:35:18;10.00;99.90
17632;DHT22;8934;51.194;17.150;2022-09-20T02:38:24;9.90;99.90
17632;DHT22;8934;51.194;17.150;2022-09-20T02:41:36;9.90;99.90
17632;DHT22;8934;51.194;17.150;2022-09-20T02:44:51;9.90;99.90
17632;DHT22;8934;51.194;17.150;2022-09-20T02:47:42;9.90;99.90
17632;DHT22;8934;51.194;17.150;2022-09-20T02:50:37;9.90;99.90
17632;DHT22;8934;51.194;17.150;2022-09-20T02:53:35;9.90;99.90
17632;DHT22;8934;51.194;17.150;2022-09-20T02:56:29;9.90;99.90
17632;DHT22;8934;51.194;17.150;2022-09-20T02:59:27;9.80;99.90
17632;DHT22;8934;51.194;17.150;2022-09-20T03:02:23;9.80;99.90
17632;DHT22;8934;51.194;17.150;2022-09-20T03:05:17;9.70;99.90
17632;DHT22;8934;51.194;17.150;2022-09-20T03:08:19;9.70;99.90
17632;DHT22;8934;51.194;17.150;2022-09-20T03:11:18;9.70;99.90
17632;DHT22;8934;51.194;17.150;2022-09-20T03:14:12;9.70;99.90
17632;DHT22;8934;51.194;17.150;2022-09-20T03:17:12;9.70;99.90
17632;DHT22;8934;51.194;17.150;2022-09-20T03:20:18;9.70;99.90
17632;DHT22;8934;51.194;17.150;2022-09-20T03:23:19;9.70;99.90
17632;DHT22;8934;51.194;17.150;2022-09-20T03:26:19;9.70;99.90
17632;DHT22;8934;51.194;17.150;2022-09-20T03:29:21;9.80;99.90
17632;DHT22;8934;51.194;17.150;2022-09-20T03:32:25;9.80;99.90
17632;DHT22;8934;51.194;17.150;2022-09-20T03:35:27;9.80;99.90
17632;DHT22;8934;51.194;17.150;2022-09-20T03:38:44;9.80;99.90
17632;DHT22;8934;51.194;17.150;2022-09-20T03:41:45;9.80;99.90
17632;DHT22;8934;51.194;17.150;2022-09-20T03:51:08;9.80;99.90
17632;DHT22;8934;51.194;17.150;2022-09-20T03:54:26;9.70;99.90
17632;DHT22;8934;51.194;17.150;2022-09-20T03:57:28;9.70;99.90
17632;DHT22;8934;51.194;17.150;2022-09-20T04:00:31;9.70;99.90
17632;DHT22;8934;51.194;17.150;2022-09-20T04:03:33;9.70;99.90
17632;DHT22;8934;51.194;17.150;2022-09-20T04:06:48;9.70;99.90
17632;DHT22;8934;51.194;17.150;2022-09-20T04:10:00;9.70;99.90
17632;DHT22;8934;51.194;17.150;2022-09-20T04:12:58;9.70;99.90
17632;DHT22;8934;51.194;17.150;2022-09-20T04:16:01;9.70;99.90
17632;DHT22;8934;51.194;17.150;2022-09-20T04:18:55;9.70;99.90
17632;DHT22;8934;51.194;17.150;2022-09-20T04:21:49;9.70;99.90
17632;DHT22;8934;51.194;17.150;2022-09-20T04:24:47;9.60;99.90
17632;DHT22;8934;51.194;17.150;2022-09-20T04:27:40;9.70;99.90
17632;DHT22;8934;51.194;17.150;2022-09-20T04:30:35;9.70;99.90
17632;DHT22;8934;51.194;17.150;2022-09-20T04:33:33;9.70;99.90
17632;DHT22;8934;51.194;17.150;2022-09-20T04:36:35;9.70;99.90
17632;DHT22;8934;51.194;17.150;2022-09-20T04:39:34;9.70;99.90
17632;DHT22;8934;51.194;17.150;2022-09-20T04:53:23;9.80;99.90
17632;DHT22;8934;51.194;17.150;2022-09-20T04:56:35;9.80;99.90
17632;DHT22;8934;51.194;17.150;2022-09-20T04:59:40;9.80;99.90
17632;DHT22;8934;51.194;17.150;2022-09-20T05:06:17;9.80;99.90
17632;DHT22;8934;51.194;17.150;2022-09-20T05:09:48;9.90;99.90
17632;DHT22;8934;51.194;17.150;2022-09-20T05:13:03;9.80;99.90
17632;DHT22;8934;51.194;17.150;2022-09-20T05:15:57;9.80;99.90
17632;DHT22;8934;51.194;17.150;2022-09-20T05:19:15;9.80;99.90
17632;DHT22;8934;51.194;17.150;2022-09-20T05:25:57;9.90;99.90
17632;DHT22;8934;51.194;17.150;2022-09-20T05:28:55;9.90;99.90
17632;DHT22;8934;51.194;17.150;2022-09-20T05:31:51;9.90;99.90
17632;DHT22;8934;51.194;17.150;2022-09-20T05:34:47;9.80;99.90
17632;DHT22;8934;51.194;17.150;2022-09-20T05:37:45;9.90;99.90
17632;DHT22;8934;51.194;17.150;2022-09-20T05:40:52;9.90;99.90
17632;DHT22;8934;51.194;17.150;2022-09-20T05:43:53;9.90;99.90
17632;DHT22;8934;51.194;17.150;2022-09-20T05:46:48;9.90;99.90
17632;DHT22;8934;51.194;17.150;2022-09-20T05:49:49;10.00;99.90
17632;DHT22;8934;51.194;17.150;2022-09-20T05:52:45;10.00;99.90
17632;DHT22;8934;51.194;17.150;2022-09-20T05:55:52;10.00;99.90
17632;DHT22;8934;51.194;17.150;2022-09-20T05:58:52;10.00;99.90
17632;DHT22;8934;51.194;17.150;2022-09-20T06:01:57;10.10;99.90
17632;DHT22;8934;51.194;17.150;2022-09-20T06:04:55;10.10;99.90
17632;DHT22;8934;51.194;17.150;2022-09-20T06:11:19;10.10;99.90
17632;DHT22;8934;51.194;17.150;2022-09-20T06:14:16;10.10;99.90
17632;DHT22;8934;51.194;17.150;2022-09-20T06:17:15;10.20;99.90
17632;DHT22;8934;51.194;17.150;2022-09-20T06:20:15;10.20;99.90
17632;DHT22;8934;51.194;17.150;2022-09-20T06:23:05;10.20;99.90
17632;DHT22;8934;51.194;17.150;2022-09-20T06:25:55;10.20;99.90
17632;DHT22;8934;51.194;17.150;2022-09-20T06:28:50;10.20;99.90
17632;DHT22;8934;51.194;17.150;2022-09-20T06:31:43;10.30;99.90
17632;DHT22;8934;51.194;17.150;2022-09-20T06:34:31;10.30;99.90
17632;DHT22;8934;51.194;17.150;2022-09-20T06:37:32;10.40;99.90
17632;DHT22;8934;51.194;17.150;2022-09-20T06:40:44;10.40;99.90
17632;DHT22;8934;51.194;17.150;2022-09-20T06:43:52;10.50;99.90
17632;DHT22;8934;51.194;17.150;2022-09-20T06:46:40;10.50;99.90
17632;DHT22;8934;51.194;17.150;2022-09-20T06:49:28;10.60;99.90
17632;DHT22;8934;51.194;17.150;2022-09-20T06:52:17;10.60;99.90
17632;DHT22;8934;51.194;17.150;2022-09-20T06:55:06;10.70;99.90
17632;DHT22;8934;51.194;17.150;2022-09-20T06:57:57;10.80;99.90
17632;DHT22;8934;51.194;17.150;2022-09-20T07:00:47;11.00;99.90
17632;DHT22;8934;51.194;17.150;2022-09-20T07:03:35;11.00;99.90
17632;DHT22;8934;51.194;17.150;2022-09-20T07:06:23;11.00;99.90
17632;DHT22;8934;51.194;17.150;2022-09-20T07:09:12;11.10;99.90
17632;DHT22;8934;51.194;17.150;2022-09-20T07:12:00;11.20;99.90
17632;DHT22;8934;51.194;17.150;2022-09-20T07:14:48;11.30;99.90
17632;DHT22;8934;51.194;17.150;2022-09-20T07:17:38;11.50;99.90
17632;DHT22;8934;51.194;17.150;2022-09-20T07:20:25;11.50;99.90
17632;DHT22;8934;51.194;17.150;2022-09-20T07:23:14;11.60;99.90
17632;DHT22;8934;51.194;17.150;2022-09-20T07:26:02;11.70;99.90
17632;DHT22;8934;51.194;17.150;2022-09-20T07:28:50;11.70;99.90
17632;DHT22;8934;51.194;17.150;2022-09-20T07:31:38;11.80;99.90
17632;DHT22;8934;51.194;17.150;2022-09-20T07:34:27;11.90;99.90
17632;DHT22;8934;51.194;17.150;2022-09-20T07:37:16;12.10;99.90
17632;DHT22;8934;51.194;17.150;2022-09-20T07:40:04;12.30;99.90
17632;DHT22;8934;51.194;17.150;2022-09-20T07:42:54;12.40;99.90
17632;DHT22;8934;51.194;17.150;2022-09-20T07:45:43;12.50;99.90
17632;DHT22;8934;51.194;17.150;2022-09-20T07:48:32;12.50;99.90
17632;DHT22;8934;51.194;17.150;2022-09-20T07:51:22;12.40;99.90
17632;DHT22;8934;51.194;17.150;2022-09-20T07:54:10;12.50;99.90
17632;DHT22;8934;51.194;17.150;2022-09-20T07:56:57;12.70;99.90
17632;DHT22;8934;51.194;17.150;2022-09-20T07:59:45;12.80;99.90
17632;DHT22;8934;51.194;17.150;2022-09-20T08:02:33;13.00;99.90
17632;DHT22;8934;51.194;17.150;2022-09-20T08:05:21;13.10;99.90
17632;DHT22;8934;51.194;17.150;2022-09-20T08:08:10;13.10;99.90
17632;DHT22;8934;51.194;17.150;2022-09-20T08:11:02;13.10;99.90
17632;DHT22;8934;51.194;17.150;2022-09-20T08:13:53;13.00;99.90
17632;DHT22;8934;51.194;17.150;2022-09-20T08:16:56;13.00;99.90
17632;DHT22;8934;51.194;17.150;2022-09-20T08:19:45;13.00;99.90
17632;DHT22;8934;51.194;17.150;2022-09-20T08:22:33;13.10;99.90
17632;DHT22;8934;51.194;17.150;2022-09-20T08:25:22;13.10;99.90
17632;DHT22;8934;51.194;17.150;2022-09-20T08:28:10;13.20;99.90
17632;DHT22;8934;51.194;17.150;2022-09-20T08:31:01;13.30;99.90
17632;DHT22;8934;51.194;17.150;2022-09-20T08:33:50;13.60;99.90
17632;DHT22;8934;51.194;17.150;2022-09-20T08:36:45;13.90;99.90
17632;DHT22;8934;51.194;17.150;2022-09-20T08:39:35;13.90;99.90
17632;DHT22;8934;51.194;17.150;2022-09-20T08:42:44;13.80;99.90
17632;DHT22;8934;51.194;17.150;2022-09-20T08:45:32;13.70;99.90
17632;DHT22;8934;51.194;17.150;2022-09-20T08:48:22;13.60;99.90
17632;DHT22;8934;51.194;17.150;2022-09-20T08:51:14;13.50;99.90
17632;DHT22;8934;51.194;17.150;2022-09-20T08:54:10;13.50;99.90
17632;DHT22;8934;51.194;17.150;2022-09-20T08:57:02;13.50;99.90
17632;DHT22;8934;51.194;17.150;2022-09-20T08:59:54;13.70;99.90
17632;DHT22;8934;51.194;17.150;2022-09-20T09:02:42;14.00;99.90
17632;DHT22;8934;51.194;17.150;2022-09-20T09:05:32;14.20;99.90
17632;DHT22;8934;51.194;17.150;2022-09-20T09:08:23;14.10;99.90
17632;DHT22;8934;51.194;17.150;2022-09-20T09:11:14;14.00;99.90
17632;DHT22;8934;51.194;17.150;2022-09-20T09:14:05;14.00;99.90
17632;DHT22;8934;51.194;17.150;2022-09-20T09:17:17;14.10;99.90
17632;DHT22;8934;51.194;17.150;2022-09-20T09:20:15;14.30;99.90
17632;DHT22;8934;51.194;17.150;2022-09-20T09:23:07;14.30;99.90
17632;DHT22;8934;51.194;17.150;2022-09-20T09:25:55;14.40;99.90
17632;DHT22;8934;51.194;17.150;2022-09-20T09:28:43;14.60;99.90
17632;DHT22;8934;51.194;17.150;2022-09-20T09:31:31;14.70;99.90
17632;DHT22;8934;51.194;17.150;2022-09-20T09:34:25;14.90;99.90
17632;DHT22;8934;51.194;17.150;2022-09-20T09:37:22;14.90;99.90
17632;DHT22;8934;51.194;17.150;2022-09-20T09:40:16;14.60;99.90
17632;DHT22;8934;51.194;17.150;2022-09-20T09:43:04;14.40;99.90
17632;DHT22;8934;51.194;17.150;2022-09-20T09:45:54;14.70;99.90
17632;DHT22;8934;51.194;17.150;2022-09-20T09:48:45;15.10;99.90
17632;DHT22;8934;51.194;17.150;2022-09-20T09:51:37;15.50;99.90
17632;DHT22;8934;51.194;17.150;2022-09-20T09:54:29;15.80;99.90
17632;DHT22;8934;51.194;17.150;2022-09-20T09:57:31;15.90;99.90
17632;DHT22;8934;51.194;17.150;2022-09-20T10:00:23;15.70;99.90
17632;DHT22;8934;51.194;17.150;2022-09-20T10:03:45;15.40;99.90
17632;DHT22;8934;51.194;17.150;2022-09-20T10:06:41;15.00;99.90
17632;DHT22;8934;51.194;17.150;2022-09-20T10:09:52;14.90;99.90
17632;DHT22;8934;51.194;17.150;2022-09-20T10:12:52;14.90;99.90
17632;DHT22;8934;51.194;17.150;2022-09-20T10:15:48;15.00;99.90
17632;DHT22;8934;51.194;17.150;2022-09-20T10:18:45;15.00;99.90
17632;DHT22;8934;51.194;17.150;2022-09-20T10:21:43;15.20;99.90
17632;DHT22;8934;51.194;17.150;2022-09-20T10:24:41;15.50;99.90
17632;DHT22;8934;51.194;17.150;2022-09-20T10:27:45;15.60;99.90
17632;DHT22;8934;51.194;17.150;2022-09-20T10:30:46;15.80;99.90
17632;DHT22;8934;51.194;17.150;2022-09-20T10:33:50;16.10;99.90
17632;DHT22;8934;51.194;17.150;2022-09-20T10:36:48;16.50;99.90
17632;DHT22;8934;51.194;17.150;2022-09-20T10:39:38;16.80;99.90
17632;DHT22;8934;51.194;17.150;2022-09-20T10:42:37;17.00;99.90
17632;DHT22;8934;51.194;17.150;2022-09-20T10:45:48;16.80;99.90
17632;DHT22;8934;51.194;17.150;2022-09-20T10:49:18;16.80;99.90
17632;DHT22;8934;51.194;17.150;2022-09-20T10:52:22;17.00;99.90
17632;DHT22;8934;51.194;17.150;2022-09-20T10:55:24;16.90;99.90
17632;DHT22;8934;51.194;17.150;2022-09-20T10:58:38;16.90;99.90
17632;DHT22;8934;51.194;17.150;2022-09-20T11:01:33;17.00;99.90
17632;DHT22;8934;51.194;17.150;2022-09-20T11:07:52;17.50;99.90
17632;DHT22;8934;51.194;17.150;2022-09-20T11:10:46;17.30;99.90
17632;DHT22;8934;51.194;17.150;2022-09-20T11:13:40;16.70;99.90
17632;DHT22;8934;51.194;17.150;2022-09-20T11:16:36;16.30;99.90
17632;DHT22;8934;51.194;17.150;2022-09-20T11:19:28;16.00;99.90
17632;DHT22;8934;51.194;17.150;2022-09-20T11:22:22;16.10;99.90
17632;DHT22;8934;51.194;17.150;2022-09-20T11:25:19;16.70;99.90
17632;DHT22;8934;51.194;17.150;2022-09-20T11:28:19;17.00;99.90
17632;DHT22;8934;51.194;17.150;2022-09-20T11:31:16;17.10;99.90
17632;DHT22;8934;51.194;17.150;2022-09-20T11:34:11;16.70;99.90
17632;DHT22;8934;51.194;17.150;2022-09-20T11:37:03;16.10;99.90
17632;DHT22;8934;51.194;17.150;2022-09-20T11:39:52;15.30;99.90
17632;DHT22;8934;51.194;17.150;2022-09-20T11:42:42;14.90;99.90
17632;DHT22;8934;51.194;17.150;2022-09-20T11:45:31;14.50;99.90
17632;DHT22;8934;51.194;17.150;2022-09-20T11:48:23;14.20;99.90
17632;DHT22;8934;51.194;17.150;2022-09-20T11:55:14;13.60;99.90
17632;DHT22;8934;51.194;17.150;2022-09-20T11:58:06;13.40;99.90
17632;DHT22;8934;51.194;17.150;2022-09-20T12:00:55;13.20;99.90
17632;DHT22;8934;51.194;17.150;2022-09-20T12:03:50;13.20;99.90
17632;DHT22;8934;51.194;17.150;2022-09-20T12:07:00;13.30;99.90
17632;DHT22;8934;51.194;17.150;2022-09-20T12:09:56;13.40;99.90
17632;DHT22;8934;51.194;17.150;2022-09-20T12:12:47;13.60;99.90
17632;DHT22;8934;51.194;17.150;2022-09-20T12:15:39;13.60;99.90
17632;DHT22;8934;51.194;17.150;2022-09-20T12:25:36;13.00;99.90
17632;DHT22;8934;51.194;17.150;2022-09-20T12:28:32;12.90;99.90
17632;DHT22;8934;51.194;17.150;2022-09-20T12:31:46;12.90;99.90
17632;DHT22;8934;51.194;17.150;2022-09-20T12:34:35;13.00;99.90
17632;DHT22;8934;51.194;17.150;2022-09-20T12:37:24;13.20;99.90
17632;DHT22;8934;51.194;17.150;2022-09-20T12:40:14;13.30;99.90
17632;DHT22;8934;51.194;17.150;2022-09-20T12:43:03;13.40;99.90
17632;DHT22;8934;51.194;17.150;2022-09-20T12:45:52;13.50;99.90
17632;DHT22;8934;51.194;17.150;2022-09-20T12:48:49;13.60;99.90
17632;DHT22;8934;51.194;17.150;2022-09-20T12:51:38;13.60;99.90
17632;DHT22;8934;51.194;17.150;2022-09-20T12:54:57;13.70;99.90
17632;DHT22;8934;51.194;17.150;2022-09-20T12:57:55;14.00;99.90
17632;DHT22;8934;51.194;17.150;2022-09-20T13:00:46;14.40;99.90
17632;DHT22;8934;51.194;17.150;2022-09-20T13:03:36;14.80;99.90
17632;DHT22;8934;51.194;17.150;2022-09-20T13:06:27;14.80;99.90
17632;DHT22;8934;51.194;17.150;2022-09-20T13:09:15;14.60;99.90
17632;DHT22;8934;51.194;17.150;2022-09-20T13:12:04;14.40;99.90
17632;DHT22;8934;51.194;17.150;2022-09-20T13:14:52;14.40;99.90
17632;DHT22;8934;51.194;17.150;2022-09-20T13:17:41;14.60;99.90
17632;DHT22;8934;51.194;17.150;2022-09-20T13:20:31;15.00;99.90
17632;DHT22;8934;51.194;17.150;2022-09-20T13:23:25;15.40;99.90
17632;DHT22;8934;51.194;17.150;2022-09-20T13:26:14;15.60;99.90
17632;DHT22;8934;51.194;17.150;2022-09-20T13:29:07;15.60;99.90
17632;DHT22;8934;51.194;17.150;2022-09-20T13:31:55;15.40;99.90
17632;DHT22;8934;51.194;17.150;2022-09-20T13:34:43;15.40;99.90
17632;DHT22;8934;51.194;17.150;2022-09-20T13:37:32;15.90;99.90
17632;DHT22;8934;51.194;17.150;2022-09-20T13:40:25;16.40;99.90
17632;DHT22;8934;51.194;17.150;2022-09-20T13:43:24;16.80;99.90
17632;DHT22;8934;51.194;17.150;2022-09-20T13:46:14;17.00;99.90
17632;DHT22;8934;51.194;17.150;2022-09-20T13:49:13;17.20;99.90
17632;DHT22;8934;51.194;17.150;2022-09-20T13:52:19;17.50;99.90
17632;DHT22;8934;51.194;17.150;2022-09-20T13:58:28;18.00;99.90
17632;DHT22;8934;51.194;17.150;2022-09-20T14:01:23;18.50;99.90
17632;DHT22;8934;51.194;17.150;2022-09-20T14:04:15;18.90;99.90
17632;DHT22;8934;51.194;17.150;2022-09-20T14:07:06;19.40;99.90
17632;DHT22;8934;51.194;17.150;2022-09-20T14:09:55;19.70;99.90
17632;DHT22;8934;51.194;17.150;2022-09-20T14:12:45;19.50;99.90
17632;DHT22;8934;51.194;17.150;2022-09-20T14:15:38;19.40;99.90
17632;DHT22;8934;51.194;17.150;2022-09-20T14:18:27;19.50;99.90
17632;DHT22;8934;51.194;17.150;2022-09-20T14:21:21;19.90;99.90
17632;DHT22;8934;51.194;17.150;2022-09-20T14:24:24;20.10;99.90
17632;DHT22;8934;51.194;17.150;2022-09-20T14:27:17;20.20;99.90
17632;DHT22;8934;51.194;17.150;2022-09-20T14:30:26;20.60;99.90
17632;DHT22;8934;51.194;17.150;2022-09-20T14:33:18;20.80;99.90
17632;DHT22;8934;51.194;17.150;2022-09-20T14:36:11;20.70;99.90
17632;DHT22;8934;51.194;17.150;2022-09-20T14:39:02;20.60;99.90
17632;DHT22;8934;51.194;17.150;2022-09-20T14:41:51;20.10;99.90
17632;DHT22;8934;51.194;17.150;2022-09-20T14:44:40;20.00;99.90
17632;DHT22;8934;51.194;17.150;2022-09-20T14:47:35;20.10;99.90
17632;DHT22;8934;51.194;17.150;2022-09-20T14:50:27;20.20;99.90
17632;DHT22;8934;51.194;17.150;2022-09-20T14:53:33;20.40;99.90
17632;DHT22;8934;51.194;17.150;2022-09-20T14:56:32;20.70;99.90
17632;DHT22;8934;51.194;17.150;2022-09-20T14:59:23;21.00;99.90
17632;DHT22;8934;51.194;17.150;2022-09-20T15:02:13;21.20;99.90
17632;DHT22;8934;51.194;17.150;2022-09-20T15:05:01;21.40;99.90
17632;DHT22;8934;51.194;17.150;2022-09-20T15:07:51;21.50;99.90
17632;DHT22;8934;51.194;17.150;2022-09-20T15:10:39;21.40;99.90
17632;DHT22;8934;51.194;17.150;2022-09-20T15:13:27;21.40;99.90
17632;DHT22;8934;51.194;17.150;2022-09-20T15:16:17;21.20;99.90
17632;DHT22;8934;51.194;17.150;2022-09-20T15:19:07;21.00;99.90
17632;DHT22;8934;51.194;17.150;2022-09-20T15:21:55;20.40;99.90
17632;DHT22;8934;51.194;17.150;2022-09-20T15:24:44;19.70;99.90
17632;DHT22;8934;51.194;17.150;2022-09-20T15:27:33;19.10;99.90
17632;DHT22;8934;51.194;17.150;2022-09-20T15:30:20;18.40;99.90
17632;DHT22;8934;51.194;17.150;2022-09-20T15:33:09;17.70;99.90
17632;DHT22;8934;51.194;17.150;2022-09-20T15:35:57;17.20;99.90
17632;DHT22;8934;51.194;17.150;2022-09-20T15:38:45;16.90;99.90
17632;DHT22;8934;51.194;17.150;2022-09-20T15:41:35;16.60;99.90
17632;DHT22;8934;51.194;17.150;2022-09-20T15:44:22;16.40;99.90
17632;DHT22;8934;51.194;17.150;2022-09-20T15:47:11;16.10;99.90
17632;DHT22;8934;51.194;17.150;2022-09-20T15:50:02;15.90;99.90
17632;DHT22;8934;51.194;17.150;2022-09-20T15:52:50;15.70;99.90
17632;DHT22;8934;51.194;17.150;2022-09-20T15:55:44;15.60;99.90
17632;DHT22;8934;51.194;17.150;2022-09-20T15:58:34;15.20;99.90
17632;DHT22;8934;51.194;17.150;2022-09-20T16:01:22;15.00;99.90
17632;DHT22;8934;51.194;17.150;2022-09-20T16:04:11;14.70;99.90
17632;DHT22;8934;51.194;17.150;2022-09-20T16:06:59;14.40;99.90
17632;DHT22;8934;51.194;17.150;2022-09-20T16:09:49;14.10;99.90
17632;DHT22;8934;51.194;17.150;2022-09-20T16:12:37;13.90;99.90
17632;DHT22;8934;51.194;17.150;2022-09-20T16:15:26;13.70;99.90
17632;DHT22;8934;51.194;17.150;2022-09-20T16:18:15;13.50;99.90
17632;DHT22;8934;51.194;17.150;2022-09-20T16:21:20;13.30;99.90
17632;DHT22;8934;51.194;17.150;2022-09-20T16:24:08;13.10;99.90
17632;DHT22;8934;51.194;17.150;2022-09-20T16:26:59;13.00;99.90
17632;DHT22;8934;51.194;17.150;2022-09-20T16:29:47;12.80;99.90
17632;DHT22;8934;51.194;17.150;2022-09-20T16:32:36;12.70;99.90
17632;DHT22;8934;51.194;17.150;2022-09-20T16:35:24;12.50;99.90
17632;DHT22;8934;51.194;17.150;2022-09-20T16:38:12;12.40;99.90
17632;DHT22;8934;51.194;17.150;2022-09-20T16:41:00;12.30;99.90
17632;DHT22;8934;51.194;17.150;2022-09-20T16:43:48;12.20;99.90
17632;DHT22;8934;51.194;17.150;2022-09-20T16:46:37;12.00;99.90
17632;DHT22;8934;51.194;17.150;2022-09-20T16:49:26;11.90;99.90
17632;DHT22;8934;51.194;17.150;2022-09-20T16:52:14;11.90;99.90
17632;DHT22;8934;51.194;17.150;2022-09-20T16:55:03;11.70;99.90
17632;DHT22;8934;51.194;17.150;2022-09-20T16:57:51;11.60;99.90
17632;DHT22;8934;51.194;17.150;2022-09-20T17:00:39;11.50;99.90
17632;DHT22;8934;51.194;17.150;2022-09-20T17:03:27;11.40;99.90
17632;DHT22;8934;51.194;17.150;2022-09-20T17:06:17;11.40;99.90
17632;DHT22;8934;51.194;17.150;2022-09-20T17:09:06;11.30;99.90
17632;DHT22;8934;51.194;17.150;2022-09-20T17:11:54;11.20;99.90
17632;DHT22;8934;51.194;17.150;2022-09-20T17:14:41;11.20;99.90
17632;DHT22;8934;51.194;17.150;2022-09-20T17:17:29;11.10;99.90
17632;DHT22;8934;51.194;17.150;2022-09-20T17:20:17;11.10;99.90
17632;DHT22;8934;51.194;17.150;2022-09-20T17:23:06;11.10;99.90
17632;DHT22;8934;51.194;17.150;2022-09-20T17:26:01;11.00;99.90
17632;DHT22;8934;51.194;17.150;2022-09-20T17:28:51;10.90;99.90
17632;DHT22;8934;51.194;17.150;2022-09-20T17:31:42;10.90;99.90
17632;DHT22;8934;51.194;17.150;2022-09-20T17:34:37;10.80;99.90
17632;DHT22;8934;51.194;17.150;2022-09-20T17:37:25;10.80;99.90
17632;DHT22;8934;51.194;17.150;2022-09-20T17:40:14;10.80;99.90
17632;DHT22;8934;51.194;17.150;2022-09-20T17:43:02;10.70;99.90
17632;DHT22;8934;51.194;17.150;2022-09-20T17:45:50;10.70;99.90
17632;DHT22;8934;51.194;17.150;2022-09-20T17:48:38;10.60;99.90
17632;DHT22;8934;51.194;17.150;2022-09-20T17:51:27;10.50;99.90
17632;DHT22;8934;51.194;17.150;2022-09-20T17:54:15;10.40;99.90
17632;DHT22;8934;51.194;17.150;2022-09-20T17:57:05;10.30;99.90
17632;DHT22;8934;51.194;17.150;2022-09-20T17:59:53;10.20;99.90
17632;DHT22;8934;51.194;17.150;2022-09-20T18:02:41;10.10;99.90
17632;DHT22;8934;51.194;17.150;2022-09-20T18:05:29;10.00;99.90
17632;DHT22;8934;51.194;17.150;2022-09-20T18:08:17;9.80;99.90
17632;DHT22;8934;51.194;17.150;2022-09-20T18:11:05;9.80;99.90
17632;DHT22;8934;51.194;17.150;2022-09-20T18:13:59;9.70;99.90
17632;DHT22;8934;51.194;17.150;2022-09-20T18:16:49;9.70;99.90
17632;DHT22;8934;51.194;17.150;2022-09-20T18:19:37;9.60;99.90
17632;DHT22;8934;51.194;17.150;2022-09-20T18:22:26;9.50;99.90
17632;DHT22;8934;51.194;17.150;2022-09-20T18:25:14;9.40;99.90
17632;DHT22;8934;51.194;17.150;2022-09-20T18:28:02;9.30;99.90
17632;DHT22;8934;51.194;17.150;2022-09-20T18:30:59;9.20;99.90
17632;DHT22;8934;51.194;17.150;2022-09-20T18:33:51;9.10;99.90
17632;DHT22;8934;51.194;17.150;2022-09-20T18:36:39;9.10;99.90
17632;DHT22;8934;51.194;17.150;2022-09-20T18:39:29;9.00;99.90
17632;DHT22;8934;51.194;17.150;2022-09-20T18:42:18;8.90;99.90
17632;DHT22;8934;51.194;17.150;2022-09-20T18:45:07;8.90;99.90
17632;DHT22;8934;51.194;17.150;2022-09-20T18:47:56;8.90;99.90
17632;DHT22;8934;51.194;17.150;2022-09-20T18:50:55;8.90;99.90
17632;DHT22;8934;51.194;17.150;2022-09-20T18:53:43;9.00;99.90
17632;DHT22;8934;51.194;17.150;2022-09-20T18:56:33;9.00;99.90
17632;DHT22;8934;51.194;17.150;2022-09-20T18:59:23;9.10;99.90
17632;DHT22;8934;51.194;17.150;2022-09-20T19:02:25;9.20;99.90
17632;DHT22;8934;51.194;17.150;2022-09-20T19:05:27;9.30;99.90
17632;DHT22;8934;51.194;17.150;2022-09-20T19:08:22;9.30;99.90
17632;DHT22;8934;51.194;17.150;2022-09-20T19:11:24;9.40;99.90
17632;DHT22;8934;51.194;17.150;2022-09-20T19:14:25;9.40;99.90
17632;DHT22;8934;51.194;17.150;2022-09-20T19:17:19;9.40;99.90
17632;DHT22;8934;51.194;17.150;2022-09-20T19:20:14;9.40;99.90